Time;durP1;ratioP1;P1;durP2;ratioP2;P2;SDS_P1;SDS_P2;PMS_P1;PMS_P2;Temp;Humidity;BMP_temperature;BMP_pressure;BME280_temperature;BME280_humidity;BME280_pressure;Samples;Min_cycle;Max_cycle;Signal;HPM_P1;HPM_P2
2023/02/10 00:01:12;;;;;;;29.85;18.35;;;0.60;99.90;;;;;;4993667;28;20426;-54
2023/02/10 00:03:58;;;;;;;31.73;18.95;;;0.50;99.90;;;;;;4992970;28;20065;-52
2023/02/10 00:06:44;;;;;;;30.50;17.80;;;0.50;99.90;;;;;;4993288;28;20030;-53
2023/02/10 00:09:30;;;;;;;28.98;17.92;;;0.60;99.90;;;;;;4993724;28;20092;-51
2023/02/10 00:12:16;;;;;;;29.42;19.15;;;0.60;99.90;;;;;;4993669;28;20121;-53
2023/02/10 00:15:04;;;;;;;30.75;18.65;;;0.60;99.90;;;;;;4991751;28;20033;-49
2023/02/10 00:17:49;;;;;;;31.33;18.85;;;0.60;99.90;;;;;;4993566;28;20042;-50
2023/02/10 00:20:35;;;;;;;27.20;18.20;;;0.70;99.90;;;;;;4993731;28;20180;-52
2023/02/10 00:23:21;;;;;;;34.92;19.77;;;0.70;99.90;;;;;;4992148;28;20035;-50
2023/02/10 00:26:10;;;;;;;32.83;19.58;;;0.70;99.90;;;;;;4991957;28;20030;-53
2023/02/10 00:28:56;;;;;;;34.22;20.17;;;0.70;99.90;;;;;;4992486;28;20034;-51
2023/02/10 00:31:43;;;;;;;31.83;19.02;;;0.80;99.90;;;;;;4971769;28;20132;-51
2023/02/10 00:34:29;;;;;;;33.15;18.33;;;0.80;99.90;;;;;;4983838;28;20061;-51
2023/02/10 00:37:15;;;;;;;32.97;19.77;;;0.80;99.90;;;;;;4990861;28;20125;-48
2023/02/10 00:40:01;;;;;;;30.42;19.63;;;0.80;99.90;;;;;;4989424;28;20450;-45
2023/02/10 00:42:47;;;;;;;34.33;18.95;;;0.90;99.90;;;;;;4997233;28;20101;-49
2023/02/10 00:45:33;;;;;;;29.27;18.65;;;0.90;99.90;;;;;;4991522;28;20457;-49
2023/02/10 00:48:18;;;;;;;31.48;18.80;;;0.80;99.90;;;;;;4992408;28;20022;-48
2023/02/10 00:51:05;;;;;;;32.17;18.65;;;0.80;99.90;;;;;;4991990;28;20066;-52
2023/02/10 00:53:52;;;;;;;29.42;18.98;;;0.90;99.90;;;;;;4992129;28;20101;-49
2023/02/10 00:56:39;;;;;;;32.72;18.95;;;0.90;99.90;;;;;;4973355;28;20077;-47
2023/02/10 00:59:25;;;;;;;29.80;17.92;;;0.90;99.90;;;;;;4984844;28;20023;-50
2023/02/10 01:02:11;;;;;;;30.83;19.35;;;1.00;99.90;;;;;;4982041;28;20023;-47
2023/02/10 01:04:57;;;;;;;30.77;18.67;;;1.00;99.90;;;;;;4987845;28;20092;-52
2023/02/10 01:07:43;;;;;;;33.45;20.15;;;1.00;99.90;;;;;;4991216;28;20096;-49
2023/02/10 01:10:28;;;;;;;30.98;19.83;;;1.00;99.90;;;;;;4992496;28;20057;-54
2023/02/10 01:13:15;;;;;;;31.60;19.35;;;1.00;99.90;;;;;;4991336;28;20619;-51
2023/02/10 01:16:08;;;;;;;34.13;19.55;;;1.00;99.90;;;;;;4985987;28;20510;-49
2023/02/10 01:18:54;;;;;;;29.48;18.73;;;1.00;99.90;;;;;;4990953;28;20051;-49
2023/02/10 01:21:40;;;;;;;31.55;18.98;;;1.00;99.90;;;;;;4982157;28;20023;-49
2023/02/10 01:24:26;;;;;;;31.55;18.00;;;1.10;99.90;;;;;;4982749;28;20717;-47
2023/02/10 01:27:12;;;;;;;33.53;18.30;;;1.10;99.90;;;;;;4991804;28;20026;-53
2023/02/10 01:29:58;;;;;;;35.65;20.65;;;1.20;99.90;;;;;;4991783;28;20399;-47
2023/02/10 01:32:44;;;;;;;30.65;18.98;;;1.10;99.90;;;;;;4985242;28;20089;-50
2023/02/10 01:35:31;;;;;;;31.08;19.90;;;1.20;99.90;;;;;;4983150;28;20403;-48
2023/02/10 01:38:17;;;;;;;33.33;19.30;;;1.10;99.90;;;;;;4991450;28;20047;-48
2023/02/10 01:41:04;;;;;;;30.65;19.55;;;1.10;99.90;;;;;;4990182;28;20128;-48
2023/02/10 01:44:03;;;;;;;34.53;19.95;;;1.10;99.90;;;;;;4991948;28;20031;-50
2023/02/10 01:46:49;;;;;;;30.02;18.33;;;1.20;99.90;;;;;;4989207;28;20105;-51
2023/02/10 01:49:40;;;;;;;34.03;20.83;;;1.10;99.90;;;;;;4982906;28;20022;-47
2023/02/10 01:52:29;;;;;;;31.42;18.92;;;1.00;99.90;;;;;;4984936;28;20027;-55
2023/02/10 01:55:19;;;;;;;30.58;19.63;;;1.20;99.90;;;;;;4992180;28;20625;-47
2023/02/10 01:58:09;;;;;;;33.80;21.00;;;1.20;99.90;;;;;;4990928;28;20035;-50
2023/02/10 02:00:55;;;;;;;33.55;19.95;;;1.20;99.90;;;;;;4991064;28;20027;-48
2023/02/10 02:03:41;;;;;;;33.63;20.38;;;1.20;99.90;;;;;;4991927;28;20039;-48
2023/02/10 02:06:27;;;;;;;32.38;20.08;;;1.10;99.90;;;;;;4994426;28;20027;-48
2023/02/10 02:09:14;;;;;;;36.63;20.23;;;1.10;99.90;;;;;;4994160;28;20382;-46
2023/02/10 02:12:10;;;;;;;36.88;21.67;;;1.10;99.90;;;;;;4997850;28;20113;-47
2023/02/10 02:15:19;;;;;;;37.97;21.05;;;1.10;99.90;;;;;;4987498;28;20030;-47
2023/02/10 02:18:24;;;;;;;32.83;20.55;;;1.10;99.90;;;;;;4990221;28;20491;-48
2023/02/10 02:21:27;;;;;;;39.08;21.55;;;1.10;99.90;;;;;;4991877;28;20394;-48
2023/02/10 02:24:34;;;;;;;36.80;22.80;;;1.10;99.90;;;;;;4990688;28;20023;-48
2023/02/10 02:28:03;;;;;;;37.05;22.63;;;1.20;99.90;;;;;;4990337;28;20066;-47
2023/02/10 02:31:02;;;;;;;34.47;21.38;;;1.20;99.90;;;;;;4991865;28;20110;-52
2023/02/10 02:33:55;;;;;;;34.35;22.08;;;1.20;99.90;;;;;;4990382;28;20062;-48
2023/02/10 02:36:48;;;;;;;39.72;23.95;;;1.20;99.90;;;;;;4989399;28;20018;-51
2023/02/10 02:39:34;;;;;;;37.50;23.00;;;1.20;99.90;;;;;;4971833;28;20054;-49
2023/02/10 02:42:25;;;;;;;37.42;24.33;;;1.20;99.90;;;;;;4985269;28;20085;-51
2023/02/10 02:45:26;;;;;;;42.47;25.80;;;1.30;99.90;;;;;;4984558;28;20049;-51
2023/02/10 02:48:24;;;;;;;41.67;24.88;;;1.30;99.90;;;;;;4989363;28;20019;-48
2023/02/10 02:51:27;;;;;;;40.40;24.98;;;1.30;99.90;;;;;;4989703;28;20061;-52
2023/02/10 02:54:23;;;;;;;38.80;24.35;;;1.30;99.90;;;;;;4990395;28;20027;-47
2023/02/10 02:57:20;;;;;;;40.17;24.90;;;1.30;99.90;;;;;;4971764;28;20034;-48
2023/02/10 03:00:10;;;;;;;40.97;26.08;;;1.30;99.90;;;;;;4989757;28;20072;-50
2023/02/10 03:02:59;;;;;;;38.03;24.70;;;1.30;99.90;;;;;;4990573;28;20039;-52
2023/02/10 03:05:45;;;;;;;44.28;25.98;;;1.30;99.90;;;;;;4989320;28;20026;-50
2023/02/10 03:08:33;;;;;;;46.80;27.08;;;1.30;99.90;;;;;;4988654;28;20113;-48
2023/02/10 03:11:19;;;;;;;43.10;25.95;;;1.30;99.90;;;;;;4989279;28;20076;-49
2023/02/10 03:14:05;;;;;;;46.33;27.17;;;1.40;99.90;;;;;;4989273;28;20391;-52
2023/02/10 03:16:51;;;;;;;44.42;26.98;;;1.40;99.90;;;;;;4989429;28;20034;-50
2023/02/10 03:19:37;;;;;;;44.97;26.60;;;1.40;99.90;;;;;;4989162;28;20402;-45
2023/02/10 03:22:23;;;;;;;45.45;28.75;;;1.40;99.90;;;;;;4989999;28;20034;-51
2023/02/10 03:25:09;;;;;;;41.70;27.02;;;1.50;99.90;;;;;;4989270;28;20022;-51
2023/02/10 03:27:55;;;;;;;42.15;27.33;;;1.50;99.90;;;;;;4988476;28;20561;-50
2023/02/10 03:30:47;;;;;;;46.03;27.52;;;1.50;99.90;;;;;;4990515;28;20030;-48
2023/02/10 03:33:33;;;;;;;46.25;29.33;;;1.40;99.90;;;;;;4990426;28;20070;-48
2023/02/10 03:36:19;;;;;;;48.35;29.52;;;1.50;99.90;;;;;;4990393;28;20035;-51
2023/02/10 03:39:05;;;;;;;44.03;28.20;;;1.40;99.90;;;;;;4990484;28;20096;-48
2023/02/10 03:41:53;;;;;;;43.35;27.95;;;1.50;99.90;;;;;;4990008;28;20665;-48
2023/02/10 03:44:39;;;;;;;44.28;28.08;;;1.50;99.90;;;;;;4991006;28;20101;-48
2023/02/10 03:47:24;;;;;;;45.08;27.95;;;1.50;99.90;;;;;;4990156;28;20023;-48
2023/02/10 03:50:11;;;;;;;47.10;29.67;;;1.50;99.90;;;;;;4988187;28;20101;-50
2023/02/10 03:52:56;;;;;;;47.45;29.10;;;1.40;99.90;;;;;;4989558;28;20030;-46
2023/02/10 03:55:42;;;;;;;45.90;30.02;;;1.40;99.90;;;;;;4990166;28;20495;-50
2023/02/10 03:58:28;;;;;;;46.95;28.23;;;1.40;99.90;;;;;;4990788;28;20495;-48
2023/02/10 04:01:16;;;;;;;47.53;28.63;;;1.50;99.90;;;;;;4994584;28;20065;-49
2023/02/10 04:04:03;;;;;;;47.20;31.10;;;1.50;99.90;;;;;;5006396;28;20398;-46
2023/02/10 04:06:49;;;;;;;46.67;30.67;;;1.50;99.90;;;;;;4992823;28;20046;-47
2023/02/10 04:09:35;;;;;;;49.58;30.38;;;1.40;99.90;;;;;;4992174;28;20550;-49
2023/02/10 04:12:21;;;;;;;53.40;29.73;;;1.50;99.90;;;;;;4993904;28;20495;-48
2023/02/10 04:15:07;;;;;;;50.60;30.88;;;1.40;99.90;;;;;;4992646;28;20030;-48
2023/02/10 04:17:53;;;;;;;53.15;31.27;;;1.30;99.90;;;;;;4974071;28;20033;-50
2023/02/10 04:20:39;;;;;;;51.35;30.50;;;1.20;99.90;;;;;;4976194;28;20133;-53
2023/02/10 04:23:25;;;;;;;56.80;30.23;;;1.20;99.90;;;;;;4992018;28;20105;-50
2023/02/10 04:26:11;;;;;;;53.00;31.70;;;1.10;99.90;;;;;;4992843;28;20030;-51
2023/02/10 04:28:57;;;;;;;49.00;30.67;;;1.20;99.90;;;;;;4993714;28;20096;-50
2023/02/10 04:31:43;;;;;;;51.88;31.83;;;1.30;99.90;;;;;;4994308;28;20081;-47
2023/02/10 04:34:29;;;;;;;49.35;31.30;;;1.30;99.90;;;;;;4979535;28;20038;-47
2023/02/10 04:37:15;;;;;;;52.47;32.05;;;1.30;99.90;;;;;;4973931;28;20411;-47
2023/02/10 04:40:01;;;;;;;49.80;30.92;;;1.40;99.90;;;;;;4988511;28;20058;-46
2023/02/10 04:42:47;;;;;;;50.22;31.10;;;1.30;99.90;;;;;;4992593;28;20594;-50
2023/02/10 04:45:33;;;;;;;47.50;30.50;;;1.30;99.90;;;;;;4994042;28;20027;-47
2023/02/10 04:48:21;;;;;;;49.65;32.45;;;1.30;99.90;;;;;;4992954;28;20490;-48
2023/02/10 04:51:08;;;;;;;49.10;30.63;;;1.30;99.90;;;;;;4992013;28;20499;-48
2023/02/10 04:53:54;;;;;;;53.53;32.35;;;1.30;99.90;;;;;;4991784;28;20057;-49
2023/02/10 04:56:40;;;;;;;51.33;32.75;;;1.30;99.90;;;;;;4992292;28;20060;-47
2023/02/10 04:59:26;;;;;;;57.30;32.50;;;1.40;99.90;;;;;;4978580;28;20038;-49
2023/02/10 05:02:12;;;;;;;52.25;31.10;;;1.40;99.90;;;;;;4992795;28;20037;-47
2023/02/10 05:04:58;;;;;;;52.60;33.05;;;1.30;99.90;;;;;;4992285;28;20126;-48
2023/02/10 05:07:44;;;;;;;55.58;33.67;;;1.20;99.90;;;;;;4987767;28;20101;-46
2023/02/10 05:10:30;;;;;;;53.92;32.10;;;1.30;99.90;;;;;;4990432;28;20560;-49
2023/02/10 05:13:16;;;;;;;55.25;33.22;;;1.40;99.90;;;;;;4990747;28;20041;-48
2023/02/10 05:16:02;;;;;;;53.53;33.67;;;1.50;99.90;;;;;;4992213;28;20073;-49
2023/02/10 05:18:48;;;;;;;55.58;33.28;;;1.50;99.90;;;;;;4990754;28;20038;-47
2023/02/10 05:21:34;;;;;;;51.67;32.63;;;1.40;99.90;;;;;;4991641;28;20078;-47
2023/02/10 05:24:20;;;;;;;56.45;34.15;;;1.40;99.90;;;;;;4992343;28;20023;-48
2023/02/10 05:27:06;;;;;;;57.47;33.65;;;1.50;99.90;;;;;;4991830;28;20058;-47
2023/02/10 05:29:52;;;;;;;50.25;33.17;;;1.50;99.90;;;;;;4992593;28;20109;-52
2023/02/10 05:32:39;;;;;;;54.05;33.30;;;1.50;99.90;;;;;;4992442;28;20042;-49
2023/02/10 05:35:25;;;;;;;52.80;34.40;;;1.40;99.90;;;;;;4991085;28;20484;-50
2023/02/10 05:38:11;;;;;;;57.75;34.15;;;1.40;99.90;;;;;;4992028;28;20053;-47
2023/02/10 05:40:57;;;;;;;59.78;35.35;;;1.40;99.90;;;;;;4992923;28;20073;-50
2023/02/10 05:43:43;;;;;;;52.95;34.38;;;1.40;99.90;;;;;;4992444;28;20065;-51
2023/02/10 05:46:29;;;;;;;55.13;34.10;;;1.40;99.90;;;;;;4991511;28;20078;-47
2023/02/10 05:49:15;;;;;;;56.67;35.78;;;1.40;99.90;;;;;;4992088;28;20070;-50
2023/02/10 05:52:01;;;;;;;55.70;34.22;;;1.50;99.90;;;;;;4992219;28;20050;-53
2023/02/10 05:54:47;;;;;;;59.20;35.20;;;1.50;99.90;;;;;;4991482;28;20046;-50
2023/02/10 05:57:33;;;;;;;59.15;37.00;;;1.40;99.90;;;;;;4991933;28;20053;-50
2023/02/10 06:00:19;;;;;;;57.55;34.75;;;1.40;99.90;;;;;;4975147;28;20045;-51
2023/02/10 06:03:05;;;;;;;60.63;34.47;;;1.40;99.90;;;;;;4978199;28;20035;-47
2023/02/10 06:05:51;;;;;;;62.95;34.80;;;1.30;99.90;;;;;;4991551;28;20398;-49
2023/02/10 06:08:37;;;;;;;63.92;36.45;;;1.40;99.90;;;;;;4991472;28;20038;-51
2023/02/10 06:11:23;;;;;;;60.60;36.42;;;1.40;99.90;;;;;;4991736;28;20033;-52
2023/02/10 06:14:09;;;;;;;60.03;36.78;;;1.40;99.90;;;;;;4991560;28;20022;-53
2023/02/10 06:16:55;;;;;;;64.90;37.60;;;1.40;99.90;;;;;;4990375;28;20482;-47
2023/02/10 06:19:41;;;;;;;63.72;36.28;;;1.40;99.90;;;;;;4988372;28;20097;-50
2023/02/10 06:22:26;;;;;;;60.22;34.55;;;1.50;99.90;;;;;;4991165;28;20073;-47
2023/02/10 06:25:13;;;;;;;63.75;35.53;;;1.50;99.90;;;;;;4992084;28;20018;-49
2023/02/10 06:27:58;;;;;;;60.30;35.38;;;1.30;99.90;;;;;;4972757;28;20533;-46
2023/02/10 06:30:44;;;;;;;64.32;36.15;;;1.30;99.90;;;;;;4975042;28;20511;-47
2023/02/10 06:33:32;;;;;;;70.63;39.38;;;1.20;99.90;;;;;;4991335;28;20415;-47
2023/02/10 06:36:18;;;;;;;65.38;36.95;;;1.20;99.90;;;;;;4990034;28;20498;-52
2023/02/10 06:39:04;;;;;;;69.00;37.88;;;1.20;99.90;;;;;;4991546;28;20026;-51
2023/02/10 06:41:50;;;;;;;69.25;37.78;;;1.20;99.90;;;;;;4991456;28;20423;-50
2023/02/10 06:44:36;;;;;;;68.13;36.40;;;1.30;99.90;;;;;;4991716;28;20058;-49
2023/02/10 06:47:22;;;;;;;74.72;40.78;;;1.40;99.90;;;;;;4991266;28;20093;-48
2023/02/10 06:50:08;;;;;;;67.65;38.05;;;1.40;99.90;;;;;;4990999;28;20647;-48
2023/02/10 06:52:54;;;;;;;73.88;39.78;;;1.40;99.90;;;;;;4990709;28;20026;-47
2023/02/10 06:55:40;;;;;;;74.03;41.33;;;1.40;99.90;;;;;;4986990;28;20022;-51
2023/02/10 06:58:26;;;;;;;75.40;40.00;;;1.30;99.90;;;;;;4998167;28;20034;-48
2023/02/10 07:01:16;;;;;;;74.88;41.67;;;1.20;99.90;;;;;;4990414;28;20029;-50
2023/02/10 07:04:02;;;;;;;74.57;40.45;;;1.20;99.90;;;;;;4997537;28;20431;-52
2023/02/10 07:06:48;;;;;;;78.43;41.05;;;1.30;99.90;;;;;;4987840;28;20022;-49
2023/02/10 07:09:34;;;;;;;84.00;42.67;;;1.50;99.90;;;;;;4990172;28;20031;-46
2023/02/10 07:12:20;;;;;;;74.85;40.83;;;1.40;99.90;;;;;;4989785;28;20041;-50
2023/02/10 07:15:06;;;;;;;78.95;39.90;;;1.40;99.90;;;;;;4995814;28;20026;-52
2023/02/10 07:17:52;;;;;;;76.28;40.83;;;1.50;99.90;;;;;;4987172;28;20092;-50
2023/02/10 07:20:38;;;;;;;77.82;40.35;;;1.60;99.90;;;;;;4983051;28;20038;-47
2023/02/10 07:23:24;;;;;;;83.97;43.88;;;1.50;99.90;;;;;;4990328;28;20018;-50
2023/02/10 07:26:11;;;;;;;83.72;43.38;;;1.40;99.90;;;;;;4989591;28;20022;-48
2023/02/10 07:28:57;;;;;;;87.53;43.40;;;1.50;99.90;;;;;;4990687;28;20034;-49
2023/02/10 07:31:43;;;;;;;84.15;43.45;;;1.40;99.90;;;;;;4990522;28;20026;-49
2023/02/10 07:34:33;;;;;;;92.50;44.00;;;1.50;99.90;;;;;;4999087;28;20025;-50
2023/02/10 07:37:19;;;;;;;81.82;42.70;;;1.70;99.90;;;;;;4997387;28;20033;-53
2023/02/10 07:40:06;;;;;;;83.78;42.83;;;1.70;99.90;;;;;;4995292;28;20034;-53
2023/02/10 07:42:52;;;;;;;82.63;42.50;;;1.80;99.90;;;;;;4996385;28;20030;-52
2023/02/10 07:45:38;;;;;;;80.95;42.70;;;1.90;99.90;;;;;;4982423;28;20019;-51
2023/02/10 07:48:25;;;;;;;87.75;43.70;;;2.00;99.90;;;;;;5005392;28;20104;-54
2023/02/10 07:51:11;;;;;;;83.20;42.95;;;2.00;99.90;;;;;;4996160;28;20088;-52
2023/02/10 07:53:57;;;;;;;83.15;41.72;;;1.90;99.90;;;;;;4996913;28;20057;-55
2023/02/10 07:56:43;;;;;;;87.32;43.28;;;2.00;99.90;;;;;;4995501;28;20026;-53
2023/02/10 07:59:29;;;;;;;84.53;41.80;;;2.00;99.90;;;;;;4996824;28;20037;-52
2023/02/10 08:02:15;;;;;;;77.50;41.42;;;2.20;99.90;;;;;;5002260;28;20061;-52
2023/02/10 08:05:00;;;;;;;76.00;42.22;;;2.30;99.90;;;;;;4995653;28;20031;-52
2023/02/10 08:07:47;;;;;;;80.55;40.65;;;2.30;99.90;;;;;;4992012;28;20022;-48
2023/02/10 08:10:33;;;;;;;85.95;41.22;;;2.20;99.90;;;;;;4995280;28;20031;-51
2023/02/10 08:13:19;;;;;;;81.45;42.25;;;2.30;99.90;;;;;;5005923;28;20058;-51
2023/02/10 08:16:07;;;;;;;83.63;43.60;;;2.20;99.90;;;;;;5003407;28;20134;-54
2023/02/10 08:18:53;;;;;;;87.57;44.25;;;2.30;99.90;;;;;;4986020;28;20035;-50
2023/02/10 08:21:41;;;;;;;81.85;41.80;;;2.40;99.90;;;;;;5001592;28;20096;-50
2023/02/10 08:24:27;;;;;;;85.57;42.92;;;2.50;99.90;;;;;;5004423;28;20590;-51
2023/02/10 08:27:13;;;;;;;80.93;42.70;;;2.50;99.90;;;;;;5000588;28;20018;-50
2023/02/10 08:29:59;;;;;;;78.72;41.38;;;2.50;99.90;;;;;;4982788;28;20075;-53
2023/02/10 08:32:45;;;;;;;84.60;43.72;;;2.50;99.90;;;;;;4998959;28;20093;-50
2023/02/10 08:35:31;;;;;;;82.25;42.95;;;2.40;99.90;;;;;;4993817;28;20035;-50
2023/02/10 08:38:17;;;;;;;78.38;40.08;;;2.50;99.90;;;;;;4995899;28;20038;-50
2023/02/10 08:41:03;;;;;;;82.60;42.35;;;2.50;99.90;;;;;;4995065;28;20038;-49
2023/02/10 08:43:49;;;;;;;91.03;42.83;;;2.60;99.90;;;;;;4995206;28;20046;-52
2023/02/10 08:46:35;;;;;;;82.28;45.13;;;2.70;99.90;;;;;;4994917;28;20061;-52
2023/02/10 08:49:24;;;;;;;79.88;40.88;;;2.70;99.90;;;;;;4995799;28;20030;-54
2023/02/10 08:52:11;;;;;;;75.50;39.08;;;2.70;99.90;;;;;;4995211;28;20418;-50
2023/02/10 08:54:56;;;;;;;72.22;39.67;;;2.80;99.90;;;;;;4993221;28;20077;-49
2023/02/10 08:57:42;;;;;;;75.82;40.17;;;2.70;99.90;;;;;;4989909;28;20018;-53
2023/02/10 09:00:29;;;;;;;72.35;39.75;;;2.90;99.90;;;;;;4992520;28;20026;-48
2023/02/10 09:03:15;;;;;;;74.05;40.15;;;2.80;99.90;;;;;;4991700;28;20519;-53
2023/02/10 09:06:00;;;;;;;76.80;39.65;;;2.90;99.90;;;;;;4988020;28;20642;-50
2023/02/10 09:08:49;;;;;;;70.55;39.15;;;3.00;99.90;;;;;;4990282;28;20030;-52
2023/02/10 09:11:36;;;;;;;74.40;39.10;;;2.90;99.90;;;;;;4990004;28;20116;-53
2023/02/10 09:14:22;;;;;;;74.05;41.30;;;2.90;99.90;;;;;;4983627;28;20106;-50
2023/02/10 09:17:08;;;;;;;75.65;39.45;;;2.90;99.90;;;;;;4999501;28;20101;-48
2023/02/10 09:19:54;;;;;;;72.22;38.65;;;3.00;99.90;;;;;;4990812;28;20559;-54
2023/02/10 09:22:40;;;;;;;70.70;38.75;;;3.00;99.90;;;;;;4991445;28;20034;-51
2023/02/10 09:25:26;;;;;;;73.78;40.13;;;3.20;99.90;;;;;;5004330;28;20022;-49
2023/02/10 09:28:12;;;;;;;64.72;37.53;;;3.20;99.90;;;;;;5009480;28;20490;-52
2023/02/10 09:30:58;;;;;;;68.40;39.58;;;3.30;99.90;;;;;;5003594;28;20550;-48
2023/02/10 09:33:45;;;;;;;74.72;39.78;;;3.40;99.90;;;;;;4992578;28;20059;-54
2023/02/10 09:36:31;;;;;;;74.78;40.22;;;3.40;99.90;;;;;;4991662;28;20442;-51
2023/02/10 09:39:17;;;;;;;67.40;39.40;;;3.30;99.90;;;;;;4977329;28;20465;-53
2023/02/10 09:42:34;;;;;;;70.25;38.00;;;3.30;99.90;;;;;;4991726;28;20042;-50
2023/02/10 09:45:26;;;;;;;64.45;36.53;;;3.30;99.90;;;;;;4991285;28;20027;-50
2023/02/10 09:48:24;;;;;;;69.55;37.63;;;3.30;99.90;;;;;;4973221;28;20058;-51
2023/02/10 09:51:18;;;;;;;74.78;38.25;;;3.50;99.90;;;;;;4984778;28;20414;-48
2023/02/10 09:54:09;;;;;;;74.45;39.17;;;3.40;99.90;;;;;;4990885;28;20450;-53
2023/02/10 09:56:56;;;;;;;71.95;40.50;;;3.40;99.90;;;;;;4989811;28;20495;-53
2023/02/10 09:59:43;;;;;;;72.78;39.05;;;3.40;99.90;;;;;;4983054;28;20042;-50
2023/02/10 10:02:47;;;;;;;72.03;38.90;;;3.40;99.90;;;;;;4986657;28;20112;-52
2023/02/10 10:05:41;;;;;;;63.17;35.30;;;3.50;99.90;;;;;;4991283;28;20072;-51
2023/02/10 10:08:57;;;;;;;67.03;37.47;;;3.60;99.90;;;;;;4990757;28;20018;-52
2023/02/10 10:11:49;;;;;;;73.75;38.92;;;3.60;99.90;;;;;;4991881;28;20535;-51
2023/02/10 10:14:39;;;;;;;72.75;40.70;;;3.60;99.90;;;;;;4989688;28;20034;-53
2023/02/10 10:18:01;;;;;;;73.43;37.60;;;3.60;99.90;;;;;;4990174;28;20042;-53
2023/02/10 10:20:48;;;;;;;73.07;39.03;;;3.80;99.90;;;;;;4989027;28;20026;-52
2023/02/10 10:24:12;;;;;;;76.60;37.60;;;3.80;99.90;;;;;;4987284;28;20023;-59
2023/02/10 10:27:23;;;;;;;74.82;38.22;;;3.90;99.90;;;;;;4987912;28;20033;-52
2023/02/10 10:30:30;;;;;;;71.18;37.38;;;3.90;99.90;;;;;;4990102;28;20108;-53
2023/02/10 10:33:24;;;;;;;64.68;37.58;;;4.00;99.90;;;;;;4993015;28;20091;-51
2023/02/10 10:36:22;;;;;;;68.57;38.70;;;4.10;99.90;;;;;;4989831;28;20054;-48
2023/02/10 10:39:30;;;;;;;70.05;38.50;;;4.10;99.90;;;;;;4990600;28;20117;-50
2023/02/10 10:42:25;;;;;;;72.57;37.58;;;4.00;99.90;;;;;;4991402;28;20534;-49
2023/02/10 10:45:24;;;;;;;66.65;36.97;;;3.90;99.90;;;;;;4991032;28;20049;-48
2023/02/10 10:48:26;;;;;;;74.47;38.58;;;3.80;99.90;;;;;;4994451;28;20038;-49
2023/02/10 10:51:13;;;;;;;69.78;38.17;;;3.90;99.90;;;;;;4982959;28;20022;-52
2023/02/10 10:54:01;;;;;;;70.65;36.45;;;4.10;99.90;;;;;;4991139;28;20165;-50
2023/02/10 10:57:01;;;;;;;62.65;34.45;;;4.10;99.90;;;;;;4993239;28;20031;-50
2023/02/10 10:59:54;;;;;;;65.72;35.15;;;4.30;99.90;;;;;;4988904;28;20030;-51
2023/02/10 11:02:51;;;;;;;63.35;35.67;;;4.30;99.90;;;;;;4976699;28;20030;-54
2023/02/10 11:05:38;;;;;;;63.67;33.60;;;4.40;99.90;;;;;;4994474;28;20021;-51
2023/02/10 11:08:28;;;;;;;62.33;34.80;;;4.30;99.90;;;;;;4996711;28;20399;-52
2023/02/10 11:11:15;;;;;;;63.55;34.35;;;4.30;99.90;;;;;;4986408;28;20081;-49
2023/02/10 11:14:03;;;;;;;61.55;34.25;;;4.30;99.90;;;;;;4990007;28;20038;-53
2023/02/10 11:17:00;;;;;;;60.72;34.78;;;4.10;99.90;;;;;;4989339;28;20097;-48
2023/02/10 11:20:02;;;;;;;68.63;35.15;;;4.20;99.90;;;;;;4989948;28;20032;-49
2023/02/10 11:23:16;;;;;;;67.18;34.17;;;4.10;99.90;;;;;;4990509;28;20561;-51
2023/02/10 11:26:16;;;;;;;58.20;33.65;;;4.00;99.90;;;;;;4989513;28;20049;-49
2023/02/10 11:29:10;;;;;;;64.13;34.25;;;4.00;99.90;;;;;;4990242;28;20030;-54
2023/02/10 11:31:57;;;;;;;63.88;34.78;;;4.20;99.90;;;;;;4989964;28;20042;-51
2023/02/10 11:34:45;;;;;;;66.93;33.33;;;4.10;99.90;;;;;;4990343;28;20115;-48
2023/02/10 11:37:37;;;;;;;61.10;33.80;;;4.10;99.90;;;;;;4971442;28;20554;-49
2023/02/10 11:40:45;;;;;;;60.83;33.67;;;4.20;99.90;;;;;;4975719;28;20030;-52
2023/02/10 11:43:39;;;;;;;60.53;32.60;;;4.10;99.90;;;;;;4990861;28;20022;-49
2023/02/10 11:46:29;;;;;;;59.03;32.75;;;4.20;99.90;;;;;;4992811;28;20027;-49
2023/02/10 11:49:17;;;;;;;64.28;32.45;;;4.20;99.90;;;;;;4989770;28;20041;-51
2023/02/10 11:52:04;;;;;;;62.50;32.80;;;4.40;99.90;;;;;;4989568;28;20414;-53
2023/02/10 11:54:51;;;;;;;59.33;33.40;;;4.50;99.90;;;;;;4989284;28;20030;-53
2023/02/10 12:01:16;;;;;;;55.60;30.73;;;4.60;99.90;;;;;;4977623;28;20018;-50
2023/02/10 12:04:48;;;;;;;61.35;31.85;;;4.60;99.90;;;;;;4989428;28;20039;-49
2023/02/10 12:08:13;;;;;;;53.95;30.02;;;4.70;99.90;;;;;;4995281;28;20030;-52
2023/02/10 12:11:06;;;;;;;57.90;30.20;;;4.80;99.90;;;;;;5004437;28;20023;-53
2023/02/10 12:14:08;;;;;;;59.10;29.63;;;4.90;99.90;;;;;;4988777;28;20503;-49
2023/02/10 12:17:31;;;;;;;53.15;28.65;;;4.90;99.90;;;;;;4979932;28;20030;-52
2023/02/10 12:20:55;;;;;;;53.85;30.05;;;5.00;99.90;;;;;;4973369;28;20062;-52
2023/02/10 12:24:06;;;;;;;57.30;29.55;;;5.00;99.90;;;;;;4991889;28;20034;-50
2023/02/10 12:27:10;;;;;;;51.17;29.10;;;5.00;99.90;;;;;;4993021;28;20105;-47
2023/02/10 12:30:15;;;;;;;51.70;30.25;;;5.00;99.90;;;;;;4974436;28;20038;-55
2023/02/10 12:33:21;;;;;;;51.42;28.35;;;4.90;99.90;;;;;;4977884;28;20398;-54
2023/02/10 12:36:30;;;;;;;44.45;26.42;;;5.00;99.90;;;;;;4992730;28;20641;-49
2023/02/10 12:39:24;;;;;;;47.60;26.05;;;5.10;99.90;;;;;;4992879;28;20503;-54
2023/02/10 12:42:24;;;;;;;48.58;26.13;;;5.30;99.90;;;;;;4992067;28;20038;-52
2023/02/10 12:45:26;;;;;;;46.72;27.25;;;5.30;99.90;;;;;;4974229;28;20623;-49
2023/02/10 12:48:36;;;;;;;53.50;28.77;;;5.40;99.90;;;;;;4977132;28;20105;-50
2023/02/10 12:51:39;;;;;;;46.55;27.77;;;5.40;99.90;;;;;;4993017;28;20026;-49
2023/02/10 12:54:40;;;;;;;49.55;27.48;;;5.40;99.90;;;;;;4992088;28;20026;-50
2023/02/10 12:57:43;;;;;;;50.47;29.83;;;5.40;99.90;;;;;;4991985;28;20033;-54
2023/02/10 13:00:35;;;;;;;53.55;29.67;;;5.50;99.90;;;;;;4993024;28;20038;-53
2023/02/10 13:03:28;;;;;;;54.80;30.38;;;5.60;99.90;;;;;;4991723;28;20034;-51
2023/02/10 13:06:31;;;;;;;49.53;27.27;;;5.60;99.90;;;;;;4991535;28;20022;-53
2023/02/10 13:09:46;;;;;;;52.08;27.65;;;5.60;99.90;;;;;;4990132;28;20065;-49
2023/02/10 13:12:42;;;;;;;54.38;30.27;;;5.60;99.90;;;;;;4993038;28;20030;-51
2023/02/10 13:15:30;;;;;;;;;;;5.40;99.90;;;;;;4992620;28;20080;-51
2023/02/10 13:18:27;;;;;;;51.90;28.33;;;5.40;99.90;;;;;;4993150;28;19917;-52
2023/02/10 13:21:25;;;;;;;56.78;32.15;;;5.30;99.90;;;;;;4992556;28;20026;-50
2023/02/10 13:24:42;;;;;;;55.42;32.13;;;5.20;99.90;;;;;;4991794;28;20034;-49
2023/02/10 13:27:42;;;;;;;51.55;30.77;;;5.10;99.90;;;;;;4991785;28;20686;-50
2023/02/10 13:30:59;;;;;;;55.75;31.08;;;5.10;99.90;;;;;;4991596;28;20026;-50
2023/02/10 13:33:59;;;;;;;52.35;29.08;;;5.10;99.90;;;;;;4994628;28;20080;-50
2023/02/10 13:36:52;;;;;;;52.65;31.00;;;5.10;99.90;;;;;;4991078;28;20387;-51
2023/02/10 13:39:46;;;;;;;50.13;31.13;;;5.10;99.90;;;;;;4991772;28;20065;-51
2023/02/10 13:42:38;;;;;;;50.10;30.98;;;5.30;99.90;;;;;;4991522;28;20023;-52
2023/02/10 13:45:26;;;;;;;51.47;32.08;;;5.20;99.90;;;;;;4990171;28;20088;-51
2023/02/10 13:48:29;;;;;;;51.35;30.67;;;5.30;99.90;;;;;;4989115;28;20074;-53
2023/02/10 13:51:15;;;;;;;50.00;30.58;;;5.30;99.90;;;;;;4991979;28;20045;-52
2023/02/10 13:54:01;;;;;;;48.15;29.92;;;5.40;99.90;;;;;;4991055;28;20034;-51
2023/02/10 13:56:54;;;;;;;51.20;30.50;;;5.50;99.90;;;;;;4990678;28;20518;-50
2023/02/10 13:59:40;;;;;;;50.30;31.80;;;5.60;99.90;;;;;;4991093;28;20042;-53
2023/02/10 14:02:26;;;;;;;51.88;31.08;;;5.70;99.90;;;;;;4976616;28;20041;-51
2023/02/10 14:05:34;;;;;;;56.22;30.40;;;5.80;99.90;;;;;;4990959;28;20113;-50
2023/02/10 14:08:29;;;;;;;47.40;28.95;;;5.80;99.90;;;;;;4990062;28;20023;-51
2023/02/10 14:11:15;;;;;;;51.70;30.52;;;6.00;99.90;;;;;;4991830;28;20022;-53
2023/02/10 14:14:29;;;;;;;52.53;31.70;;;5.90;99.90;;;;;;4991849;28;20494;-53
2023/02/10 14:17:29;;;;;;;55.25;31.05;;;5.90;99.90;;;;;;4990626;28;20100;-55
2023/02/10 14:20:23;;;;;;;49.92;30.13;;;5.80;99.90;;;;;;4991365;28;20065;-57
2023/02/10 14:23:19;;;;;;;51.15;30.67;;;6.00;99.90;;;;;;4990908;28;20042;-49
2023/02/10 14:26:17;;;;;;;51.42;30.13;;;6.00;99.90;;;;;;4990167;28;20080;-51
2023/02/10 14:29:09;;;;;;;52.50;31.17;;;6.20;99.90;;;;;;4990206;28;20041;-50
2023/02/10 14:31:58;;;;;;;47.95;29.65;;;6.50;99.90;;;;;;4989178;28;20026;-52
2023/02/10 14:34:54;;;;;;;49.45;30.45;;;6.50;99.90;;;;;;4990945;28;20046;-50
2023/02/10 14:37:53;;;;;;;46.28;30.65;;;6.40;99.90;;;;;;4981256;28;20035;-49
2023/02/10 14:40:39;;;;;;;48.15;29.77;;;6.20;99.90;;;;;;4990358;28;20038;-50
2023/02/10 14:43:28;;;;;;;50.85;32.92;;;6.10;99.90;;;;;;4989211;28;20042;-54